Terminal Aerodrome Forecast
Issued by NWS Wilmington, OH

Current Version | Previous Version | Text Only | Print | Product List | Glossary Off
Versions: 1 2 3 4 5 6 7 8 9 10 11 12 13 14 15 16 17 18 19 20 21 22

000
FTUS41 KILN 210500
TAFCMH
TAF
KCMH 210530Z 2106/2206 21009KT P6SM VCSH BKN050
     FM211100 23010KT P6SM OVC020
     FM211500 26014G23KT P6SM BKN025
     FM211600 27015G24KT P6SM SCT040
     FM212200 29016G25KT P6SM BKN050
     FM220200 30012KT P6SM OVC040=

USA.gov is the U.S. government's official web portal to all federal, state and local government web resources and services.